North Branch, Iowa
Current Conditions -  °F | °C
As of 12:35 AM on Thursday 27 Nov 2014 (Local Time) from KADU Reporting Station
Scattered Clouds Scattered Clouds  
Wind Chill:   Ceiling: Unl
Heat Index: 16°   Visibility: 10mi
Dew Point: 10°   Wind: 10mph
Humidity: 79%   Direction: 310°NW
Pressure: 30.42"   Gusts: 16mph
Location:  41.5232°N, 94.6432°W
Report Text: KADU 270635Z AUTO 31009G14KT 10SM SCT010 M09/M12 A3042 RMK AO2
Loading
Personal Weather Stations






























Interactive Weather Map New forecast layout! Learn more

10-Day Weather Forecast

Advertisements
Track Severe Weather on mobile